Terminal Aerodrome Forecast
Issued by NWS Knoxville/Tri Cities, TN

Home | Current Version | Previous Version | Text Only | Print | Product List | Glossary On
Versions: 1 2 3 4 5 6 7 8 9 10 11 12 13 14 15 16 17 18 19 20 21 22 23 24 25 26 27 28 29 30 31 32 33 34 35 36 37 38
000
FTUS44 KMRX 041128
TAFCHA
TAF
KCHA 041128Z 0412/0512 17007KT 6SM BR VCSH SCT015 OVC020
      TEMPO 0412/0414 3SM -RA BR BKN005 OVC015
     FM041800 21010KT P6SM BKN035
     FM042200 22010KT 5SM -SHRA BR OVC040
     FM050200 36012KT 3SM -RA BR OVC020
     FM050700 01012KT 6SM -RA BR SCT007 OVC015=

USA.gov is the U.S. government's official web portal to all federal, state and local government web resources and services.